Terminal Aerodrome Forecast
Issued by NWS Atlanta, GA

Home | Current Version | Previous Version | Text Only | Print | Product List | Glossary On
Versions: 1 2 3 4 5 6 7 8 9 10 11 12 13 14 15 16 17 18 19 20 21 22 23 24 25 26 27 28 29 30 31 32 33 34 35 36 37
452
FTUS42 KFFC 251219 AAA
TAFAHN
TAF AMD
KAHN 251219Z 2512/2612 26008KT P6SM BKN010
     FM251500 26014G22KT P6SM SCT035
     FM251700 27015G24KT P6SM SCT040
     FM260000 27010KT P6SM FEW035
     FM260300 26006KT P6SM SKC=

USA.gov is the U.S. government's official web portal to all federal, state and local government web resources and services.